Time;durP1;ratioP1;P1;durP2;ratioP2;P2;SDS_P1;SDS_P2;PMS_P1;PMS_P2;Temp;Humidity;BMP_temperature;BMP_pressure;BME280_temperature;BME280_humidity;BME280_pressure;Samples;Min_cycle;Max_cycle;Signal;HPM_P1;HPM_P2
2023/04/10 00:03:00;;;;;;;49.90;34.20;;;;;;;10.27;100.00;101169.48;180914;1262;44180;-89
2023/04/10 00:07:05;;;;;;;42.60;29.20;;;;;;;10.40;100.00;101169.55;181028;1262;43857;-90
2023/04/10 00:11:08;;;;;;;40.80;31.20;;;;;;;10.51;100.00;101167.55;180933;1261;58312;-90
2023/04/10 00:15:12;;;;;;;47.50;31.50;;;;;;;10.64;100.00;101166.84;181043;1262;44043;-91
2023/04/10 00:19:15;;;;;;;40.70;30.00;;;;;;;10.60;100.00;101161.50;181011;1263;43882;-89
2023/04/10 00:23:19;;;;;;;42.80;31.20;;;;;;;10.29;100.00;101159.63;180890;1263;43972;-89
2023/04/10 00:27:22;;;;;;;45.40;33.20;;;;;;;10.02;100.00;101153.92;180864;1262;43930;-89
2023/04/10 00:31:25;;;;;;;45.90;33.40;;;;;;;10.00;100.00;101154.39;180857;1261;58718;-88
2023/04/10 00:35:28;;;;;;;47.60;32.80;;;;;;;10.08;100.00;101157.59;180854;1263;44572;-89
2023/04/10 00:39:32;;;;;;;47.70;35.70;;;;;;;10.10;100.00;101161.39;180962;1261;44090;-89
2023/04/10 00:43:35;;;;;;;45.20;31.60;;;;;;;10.00;100.00;101166.63;181013;1262;44010;-90
2023/04/10 00:47:39;;;;;;;50.00;34.10;;;;;;;9.92;100.00;101163.41;180933;1262;43806;-90
2023/04/10 00:51:43;;;;;;;41.90;32.10;;;;;;;9.79;100.00;101158.95;180998;1260;58385;-89
2023/04/10 00:55:48;;;;;;;36.40;28.60;;;;;;;9.67;100.00;101155.80;180849;1263;43866;-88
2023/04/10 00:59:52;;;;;;;48.70;32.10;;;;;;;9.66;100.00;101155.18;180867;1262;44056;-89
2023/04/10 01:03:55;;;;;;;48.10;37.60;;;;;;;9.61;100.00;101148.23;180976;1261;44253;-87
2023/04/10 01:08:16;;;;;;;46.50;34.00;;;;;;;9.64;100.00;101148.17;180865;1263;43861;-88
2023/04/10 01:12:20;;;;;;;52.20;36.60;;;;;;;9.74;100.00;101150.25;180901;1261;57940;-89
2023/04/10 01:16:30;;;;;;;47.50;34.60;;;;;;;9.85;100.00;101150.55;181102;1260;44022;-89
2023/04/10 01:20:38;;;;;;;40.90;28.20;;;;;;;10.00;100.00;101152.12;180978;1262;44124;-89
2023/04/10 01:25:13;;;;;;;51.50;34.90;;;;;;;10.10;100.00;101152.50;180928;1262;43992;-89
2023/04/10 01:29:20;;;;;;;47.30;34.90;;;;;;;10.28;100.00;101152.91;180850;1262;44149;-89
2023/04/10 01:33:31;;;;;;;45.60;30.20;;;;;;;10.36;100.00;101149.20;180964;1263;58266;-89
2023/04/10 01:37:42;;;;;;;43.00;29.60;;;;;;;10.22;100.00;101145.01;180873;1264;44041;-90
2023/04/10 01:41:49;;;;;;;50.30;35.30;;;;;;;9.97;100.00;101138.63;180912;1264;44215;-90
2023/04/10 01:45:53;;;;;;;44.70;33.60;;;;;;;9.70;100.00;101130.85;180774;1264;44304;-90
2023/04/10 01:49:58;;;;;;;52.70;36.70;;;;;;;9.63;100.00;101130.92;180824;1262;44017;-89
2023/04/10 01:54:02;;;;;;;47.70;35.10;;;;;;;9.59;100.00;101132.59;181044;1260;59853;-90
2023/04/10 01:58:09;;;;;;;49.50;33.50;;;;;;;9.46;100.00;101132.34;180961;1262;43898;-90
2023/04/10 02:02:13;;;;;;;46.00;30.10;;;;;;;9.44;100.00;101131.04;180969;1264;44180;-90
2023/04/10 02:06:41;;;;;;;42.20;32.30;;;;;;;9.37;99.67;101133.77;180976;1263;43813;-90
2023/04/10 02:11:01;;;;;;;40.80;29.00;;;;;;;9.24;98.78;101135.30;180884;1262;43844;-90
2023/04/10 02:15:07;;;;;;;38.00;27.50;;;;;;;8.91;99.35;101136.27;180872;1265;59592;-89
2023/04/10 02:19:12;;;;;;;42.20;29.90;;;;;;;8.51;100.00;101136.70;180921;1263;44141;-89
2023/04/10 02:23:16;;;;;;;46.40;33.50;;;;;;;8.21;100.00;101138.43;180978;1263;44149;-89
2023/04/10 02:27:29;;;;;;;36.60;28.60;;;;;;;8.04;100.00;101142.73;180908;1263;45026;-89
2023/04/10 02:31:32;;;;;;;40.80;26.50;;;;;;;7.95;100.00;101150.15;180890;1262;44034;-89
2023/04/10 02:35:38;;;;;;;49.80;34.10;;;;;;;7.82;100.00;101149.45;180892;1262;58288;-90
2023/04/10 02:39:42;;;;;;;36.80;25.10;;;;;;;7.93;100.00;101152.75;180939;1262;43776;-91
2023/04/10 02:43:45;;;;;;;33.60;26.70;;;;;;;7.94;100.00;101151.60;180987;1263;44043;-90
2023/04/10 02:47:49;;;;;;;45.20;26.60;;;;;;;8.04;100.00;101156.67;180947;1264;44181;-90
2023/04/10 02:51:53;;;;;;;40.00;30.00;;;;;;;7.94;100.00;101155.52;180933;1263;43984;-90
2023/04/10 02:55:57;;;;;;;29.10;22.00;;;;;;;7.82;100.00;101152.47;180960;1260;60134;-89
2023/04/10 03:00:01;;;;;;;30.60;22.70;;;;;;;7.86;100.00;101150.98;180994;1260;44225;-90
2023/04/10 03:04:05;;;;;;;29.30;24.10;;;;;;;7.93;100.00;101152.05;180851;1262;43816;-90
2023/04/10 03:08:09;;;;;;;29.30;22.20;;;;;;;7.99;100.00;101152.23;181014;1263;44054;-90
2023/04/10 03:12:12;;;;;;;29.50;23.80;;;;;;;7.97;100.00;101150.57;180941;1262;43866;-90
2023/04/10 03:16:18;;;;;;;29.30;22.30;;;;;;;7.96;100.00;101152.38;180908;1262;59710;-90
2023/04/10 03:20:22;;;;;;;36.20;24.40;;;;;;;7.90;100.00;101153.62;180909;1262;44081;-89
2023/04/10 03:24:25;;;;;;;29.80;19.50;;;;;;;7.84;100.00;101154.42;180977;1263;43860;-89
2023/04/10 03:28:31;;;;;;;22.80;17.90;;;;;;;7.91;100.00;101155.14;181054;1262;44283;-90
2023/04/10 03:32:35;;;;;;;39.50;28.90;;;;;;;8.04;100.00;101154.25;180866;1262;44004;-90
2023/04/10 03:36:38;;;;;;;28.50;22.40;;;;;;;8.12;100.00;101156.59;180889;1260;60608;-90
2023/04/10 03:40:42;;;;;;;42.20;27.80;;;;;;;8.12;100.00;101151.31;180999;1262;44003;-90
2023/04/10 03:44:46;;;;;;;37.00;25.40;;;;;;;8.08;100.00;101153.15;181149;1262;44201;-90
2023/04/10 03:48:51;;;;;;;37.60;28.00;;;;;;;8.03;100.00;101150.56;181032;1260;44029;-91
2023/04/10 03:52:55;;;;;;;35.00;25.50;;;;;;;7.94;100.00;101153.57;180945;1262;44341;-90
2023/04/10 03:57:00;;;;;;;33.60;25.70;;;;;;;7.87;100.00;101159.23;180947;1262;58759;-90
2023/04/10 04:01:04;;;;;;;33.30;25.30;;;;;;;7.89;100.00;101158.42;180877;1263;43782;-90
2023/04/10 04:05:08;;;;;;;37.70;28.50;;;;;;;7.94;100.00;101157.08;180937;1262;43908;-90
2023/04/10 04:09:12;;;;;;;37.70;23.80;;;;;;;7.99;100.00;101159.61;181046;1262;43751;-91
2023/04/10 04:13:15;;;;;;;40.90;26.10;;;;;;;7.97;99.84;101165.59;180878;1262;44209;-90
2023/04/10 04:21:49;;;;;;;43.00;27.10;;;;;;;7.83;99.24;101174.10;160277;1261;46925;-90
2023/04/10 04:25:55;;;;;;;45.20;30.50;;;;;;;7.84;99.90;101174.59;181150;1262;46158;-89
2023/04/10 04:30:05;;;;;;;39.30;28.00;;;;;;;7.83;99.23;101180.30;181144;1263;43875;-91
2023/04/10 04:34:11;;;;;;;34.70;23.40;;;;;;;7.79;97.28;101184.95;181128;1262;43740;-90
2023/04/10 04:38:18;;;;;;;31.90;22.10;;;;;;;7.58;95.97;101187.16;181049;1262;59494;-90
2023/04/10 04:46:49;;;;;;;32.30;21.20;;;;;;;6.82;100.00;101194.69;178345;1262;43913;-91
2023/04/10 04:50:56;;;;;;;29.90;20.90;;;;;;;6.80;100.00;101201.81;181009;1262;43851;-90
2023/04/10 04:55:06;;;;;;;20.40;16.40;;;;;;;6.79;100.00;101209.48;180994;1262;43973;-90
2023/04/10 04:59:14;;;;;;;38.30;25.10;;;;;;;6.88;100.00;101205.63;181056;1262;59746;-90
2023/04/10 05:25:56;;;;;;;28.90;21.90;;;;;;;7.48;100.00;101222.45;179579;1267;43822;-90
2023/04/10 05:43:09;;;;;;;60.70;34.90;;;;;;;7.61;100.00;101232.87;177822;1266;57941;-91
2023/04/10 05:47:16;;;;;;;64.70;42.30;;;;;;;7.79;100.00;101230.87;180782;1266;44176;-90
2023/04/10 05:51:20;;;;;;;53.10;35.00;;;;;;;7.97;100.00;101222.45;180728;1266;44433;-91
2023/04/10 05:55:42;;;;;;;;;;;;;;;;;;;;;
2023/04/10 05:59:36;;;;;;;59.60;42.80;;;;;;;8.31;100.00;101221.24;181082;1262;43745;-89
2023/04/10 06:03:44;;;;;;;86.10;46.70;;;;;;;8.52;100.00;101213.70;181017;1262;59515;-90
2023/04/10 06:07:52;;;;;;;49.00;35.70;;;;;;;8.81;100.00;101209.73;181141;1261;44012;-90
2023/04/10 06:12:00;;;;;;;71.10;39.10;;;;;;;9.17;100.00;101209.55;181083;1261;44152;-90
2023/04/10 06:16:04;;;;;;;77.90;43.50;;;;;;;9.47;100.00;101213.53;181072;1261;44063;-90
2023/04/10 06:20:09;;;;;;;56.20;34.90;;;;;;;9.70;100.00;101217.10;180931;1262;43934;-90
2023/04/10 06:24:14;;;;;;;69.10;32.50;;;;;;;9.92;100.00;101221.52;180940;1261;59555;-89
2023/04/10 06:28:18;;;;;;;55.20;31.30;;;;;;;10.03;100.00;101230.42;181019;1260;44235;-90
2023/04/10 06:32:22;;;;;;;67.40;30.70;;;;;;;10.14;100.00;101228.98;180976;1261;43917;-89
2023/04/10 06:36:26;;;;;;;80.70;32.80;;;;;;;10.24;100.00;101234.16;180938;1260;44147;-90
2023/04/10 06:40:29;;;;;;;38.30;26.80;;;;;;;10.31;100.00;101238.52;180966;1262;43809;-89
2023/04/10 06:44:35;;;;;;;38.60;26.50;;;;;;;10.42;100.00;101238.56;180950;1262;57334;-89
2023/04/10 06:48:38;;;;;;;32.60;23.20;;;;;;;10.55;100.00;101240.58;180987;1261;43984;-89
2023/04/10 06:52:44;;;;;;;38.90;26.50;;;;;;;10.74;100.00;101244.81;180940;1262;43798;-89
2023/04/10 06:56:47;;;;;;;38.30;26.50;;;;;;;10.95;100.00;101248.73;181061;1261;44240;-90
2023/04/10 07:00:51;;;;;;;34.30;27.40;;;;;;;10.99;100.00;101257.13;180909;1261;43689;-89
2023/04/10 07:04:55;;;;;;;57.30;41.40;;;;;;;10.92;100.00;101256.21;180971;1262;59046;-84
2023/04/10 07:08:58;;;;;;;85.60;62.10;;;;;;;10.82;100.00;101254.92;180957;1260;43870;-86
2023/04/10 07:13:01;;;;;;;60.30;44.60;;;;;;;10.70;100.00;101257.09;180974;1262;43843;-85
2023/04/10 07:17:05;;;;;;;88.90;59.20;;;;;;;10.67;100.00;101258.21;180884;1262;44479;-89
2023/04/10 07:21:13;;;;;;;69.20;49.70;;;;;;;10.57;100.00;101251.95;180930;1262;44084;-90
2023/04/10 07:25:17;;;;;;;75.30;46.00;;;;;;;10.62;100.00;101251.81;180985;1262;58392;-88
2023/04/10 07:29:20;;;;;;;57.70;37.60;;;;;;;10.72;100.00;101255.58;181075;1262;43790;-89
2023/04/10 07:33:26;;;;;;;57.70;40.70;;;;;;;10.97;100.00;101256.70;181045;1261;43940;-90
2023/04/10 07:37:29;;;;;;;72.70;40.40;;;;;;;11.31;100.00;101260.27;180720;1262;44108;-84
2023/04/10 07:41:32;;;;;;;48.90;34.50;;;;;;;11.57;100.00;101253.54;180920;1262;43797;-85
2023/04/10 07:45:35;;;;;;;52.00;36.10;;;;;;;11.83;100.00;101240.29;180849;1262;57942;-85
2023/04/10 07:49:39;;;;;;;58.30;39.50;;;;;;;12.22;100.00;101236.30;180855;1261;43865;-89
2023/04/10 07:53:42;;;;;;;46.90;35.60;;;;;;;12.54;100.00;101225.77;180932;1261;43981;-85
2023/04/10 07:57:45;;;;;;;47.60;36.10;;;;;;;12.96;100.00;101225.81;180886;1262;44052;-89
2023/04/10 08:01:49;;;;;;;50.90;39.50;;;;;;;13.38;98.67;101221.48;180828;1261;43918;-88
2023/04/10 08:05:52;;;;;;;53.80;39.20;;;;;;;13.74;95.78;101222.94;180680;1261;296951;-87
2023/04/10 08:09:55;;;;;;;49.60;34.10;;;;;;;13.86;91.65;101220.02;180808;1262;43908;-89
2023/04/10 08:14:01;;;;;;;51.70;35.70;;;;;;;13.99;91.43;101219.20;180812;1262;44063;-89
2023/04/10 08:18:04;;;;;;;43.90;35.70;;;;;;;14.19;89.82;101217.04;180881;1262;44232;-89
2023/04/10 08:22:08;;;;;;;52.10;35.30;;;;;;;14.28;88.76;101212.17;180823;1261;44203;-89
2023/04/10 08:26:11;;;;;;;53.90;34.80;;;;;;;14.37;86.55;101211.11;180733;1262;58846;-87
2023/04/10 08:30:14;;;;;;;42.60;29.50;;;;;;;14.56;87.29;101207.02;180868;1262;44248;-88
2023/04/10 08:34:17;;;;;;;41.90;31.00;;;;;;;14.56;84.29;101208.77;180929;1261;43896;-88
2023/04/10 08:38:22;;;;;;;40.70;27.80;;;;;;;14.68;82.85;101207.47;180870;1261;44427;-88
2023/04/10 08:42:26;;;;;;;38.30;26.00;;;;;;;14.83;81.37;101207.66;180905;1262;44070;-89
2023/04/10 08:46:34;;;;;;;42.30;30.10;;;;;;;15.02;81.91;101208.86;180898;1262;59752;-89
2023/04/10 08:50:45;;;;;;;49.00;31.30;;;;;;;15.11;79.38;101203.79;180807;1262;43854;-88
2023/04/10 08:54:55;;;;;;;39.90;30.40;;;;;;;15.02;80.02;101208.33;180735;1261;43797;-88
2023/04/10 08:59:00;;;;;;;35.40;27.70;;;;;;;15.11;79.64;101207.94;180944;1262;44071;-88
2023/04/10 09:03:07;;;;;;;38.40;27.20;;;;;;;15.18;77.95;101209.50;180921;1262;43695;-88
2023/04/10 09:07:10;;;;;;;34.50;24.80;;;;;;;15.12;78.22;101208.02;180883;1261;60430;-88
2023/04/10 09:11:14;;;;;;;34.30;25.70;;;;;;;15.33;78.86;101200.19;180961;1262;44083;-89
2023/04/10 09:15:17;;;;;;;40.00;28.50;;;;;;;15.56;77.18;101196.33;180990;1262;43904;-90
2023/04/10 09:19:31;;;;;;;41.20;26.30;;;;;;;15.73;76.49;101190.45;180859;1261;44060;-88
2023/04/10 09:23:35;;;;;;;36.40;27.50;;;;;;;15.80;75.72;101188.71;180970;1261;43798;-89
2023/04/10 09:27:38;;;;;;;37.90;27.40;;;;;;;15.91;75.37;101181.33;180980;1261;58032;-88
2023/04/10 09:31:42;;;;;;;36.10;27.50;;;;;;;15.99;75.00;101178.83;180884;1261;44043;-88
2023/04/10 09:35:49;;;;;;;35.40;26.70;;;;;;;16.14;74.64;101173.16;180807;1262;44924;-89
2023/04/10 09:39:53;;;;;;;39.00;27.80;;;;;;;16.17;72.23;101164.52;180702;1262;43875;-89
2023/04/10 09:44:18;;;;;;;40.80;27.20;;;;;;;15.95;72.20;101162.70;180980;1260;44934;31
2023/04/10 09:48:59;;;;;;;38.50;26.60;;;;;;;15.70;74.75;101157.80;180878;1255;58235;31
2023/04/10 09:58:28;;;;;;;40.40;25.40;;;;;;;15.64;74.77;101142.43;181022;1259;44023;-89
2023/04/10 10:21:43;;;;;;;32.70;23.40;;;;;;;15.75;73.97;101113.21;181085;1260;44088;-89
2023/04/10 10:25:50;;;;;;;32.40;24.70;;;;;;;15.73;73.77;101113.13;181056;1263;43905;-89
2023/04/10 10:29:58;;;;;;;34.60;24.30;;;;;;;15.77;74.31;101105.67;180973;1263;47838;-89
2023/04/10 10:34:18;;;;;;;33.80;24.10;;;;;;;15.86;72.20;101100.36;181033;1258;59591;31
2023/04/10 11:02:41;;;;;;;36.70;25.90;;;;;;;16.15;72.42;101077.90;180908;1260;45222;-90
2023/04/10 11:11:14;;;;;;;33.50;24.80;;;;;;;16.33;72.20;101077.15;180803;1267;44485;-90
2023/04/10 11:15:32;;;;;;;33.30;23.60;;;;;;;16.49;72.83;101069.36;180954;1264;44105;-90
2023/04/10 11:24:51;;;;;;;29.60;22.20;;;;;;;16.23;73.02;101065.88;180413;1267;43872;-90
2023/04/10 11:28:55;;;;;;;35.30;25.30;;;;;;;16.27;73.16;101067.52;180320;1266;44809;-91
2023/04/10 11:33:00;;;;;;;34.10;25.60;;;;;;;16.17;73.19;101068.80;180511;1266;43809;-91
2023/04/10 11:37:05;;;;;;;43.60;29.80;;;;;;;15.97;74.33;101068.65;180443;1267;45872;-90
2023/04/10 11:41:09;;;;;;;62.90;41.80;;;;;;;15.87;73.25;101057.39;180427;1266;59639;-90
2023/04/10 11:45:27;;;;;;;49.30;29.50;;;;;;;15.87;74.67;101057.55;180307;1267;44109;-91
2023/04/10 11:49:33;;;;;;;45.30;27.30;;;;;;;15.69;75.37;101055.77;180336;1267;44257;-90
2023/04/10 11:53:46;;;;;;;49.60;33.10;;;;;;;15.48;77.26;101051.38;180518;1267;44142;-90
2023/04/10 11:58:08;;;;;;;30.70;25.70;;;;;;;15.57;74.48;101050.77;180826;1264;44249;31
2023/04/10 12:02:26;;;;;;;33.20;23.60;;;;;;;15.61;73.14;101039.67;180730;1257;60591;31
2023/04/10 12:07:10;;;;;;;35.30;26.10;;;;;;;15.51;75.14;101035.42;180262;1263;45834;31
2023/04/10 12:45:03;;;;;;;27.70;21.70;;;;;;;16.29;72.41;100978.02;180749;1258;43526;-88
2023/04/10 12:49:30;;;;;;;33.00;25.10;;;;;;;16.42;69.79;100972.63;180859;1265;62875;-89
2023/04/10 12:53:53;;;;;;;29.90;23.50;;;;;;;16.38;70.86;100967.47;180784;1261;44702;-90
2023/04/10 13:25:55;;;;;;;30.70;22.90;;;;;;;16.19;71.75;100936.52;180880;1258;44948;31
2023/04/10 13:30:17;;;;;;;30.50;22.20;;;;;;;16.18;71.70;100930.34;181102;1256;45088;31
2023/04/10 13:34:56;;;;;;;34.10;24.30;;;;;;;16.29;70.42;100922.39;180943;1257;57766;31
2023/04/10 13:39:17;;;;;;;25.60;21.60;;;;;;;16.30;68.93;100916.70;180906;1257;44787;31
2023/04/10 13:53:11;;;;;;;27.30;18.80;;;;;;;16.22;68.95;100893.98;180855;1259;45598;31
2023/04/10 14:02:37;;;;;;;27.50;19.40;;;;;;;16.17;68.40;100883.24;180210;1259;44841;31
2023/04/10 14:07:13;;;;;;;28.60;20.50;;;;;;;16.26;69.49;100873.02;180731;1260;45182;-88
2023/04/10 14:30:10;;;;;;;19.60;15.30;;;;;;;16.38;64.26;100841.46;180720;1259;44814;31
2023/04/10 14:49:07;;;;;;;20.80;15.30;;;;;;;16.57;66.64;100805.61;180908;1257;45018;31
2023/04/10 14:58:32;;;;;;;26.20;16.10;;;;;;;16.61;65.84;100786.62;180288;1256;45585;31
2023/04/10 15:07:27;;;;;;;;;;;;;;;;;;;;;
2023/04/10 15:11:41;;;;;;;18.20;15.40;;;;;;;16.60;66.67;100768.08;180872;1261;44058;-88
2023/04/10 15:20:18;;;;;;;19.60;14.30;;;;;;;16.48;64.94;100761.39;180548;1263;45057;-88
2023/04/10 15:24:21;;;;;;;23.50;18.00;;;;;;;16.41;67.16;100760.41;180375;1265;44956;-88
2023/04/10 15:28:26;;;;;;;19.70;12.50;;;;;;;16.28;68.38;100758.67;180213;1265;59706;-88
2023/04/10 15:32:30;;;;;;;19.90;16.30;;;;;;;16.09;68.50;100755.52;180431;1264;43802;-87
2023/04/10 15:36:33;;;;;;;25.00;15.20;;;;;;;16.22;68.03;100752.84;180451;1266;43982;-87
2023/04/10 15:40:36;;;;;;;17.50;15.30;;;;;;;16.26;68.34;100747.98;180609;1264;44262;-88
2023/04/10 15:44:39;;;;;;;23.10;16.00;;;;;;;16.30;70.28;100745.43;180577;1264;43890;-87
2023/04/10 15:48:44;;;;;;;24.10;16.00;;;;;;;16.25;70.95;100747.34;180602;1265;58294;-88
2023/04/10 15:52:49;;;;;;;21.00;16.20;;;;;;;16.23;70.26;100743.56;180460;1264;44710;-88
2023/04/10 15:56:52;;;;;;;20.90;16.70;;;;;;;16.23;71.01;100740.20;180505;1265;43743;-87
2023/04/10 16:00:55;;;;;;;22.90;17.00;;;;;;;16.15;69.54;100734.41;180651;1264;44358;-88
2023/04/10 16:04:58;;;;;;;24.90;16.60;;;;;;;16.14;70.80;100728.06;180552;1265;44361;-87
2023/04/10 16:09:02;;;;;;;22.90;17.60;;;;;;;16.09;71.97;100724.05;180545;1265;58281;-88
2023/04/10 16:13:11;;;;;;;29.30;19.80;;;;;;;16.05;71.72;100714.39;180594;1265;43764;-87
2023/04/10 16:17:14;;;;;;;50.20;34.50;;;;;;;16.00;72.08;100711.69;180202;1264;44108;-86
2023/04/10 16:21:20;;;;;;;82.00;50.90;;;;;;;15.93;72.12;100707.95;180492;1265;44177;-86
2023/04/10 16:25:25;;;;;;;135.90;80.70;;;;;;;15.81;72.45;100701.36;180613;1264;44027;-86
2023/04/10 16:29:29;;;;;;;;;;;;;;;15.71;73.55;100693.72;180376;1265;59544;-86
2023/04/10 16:33:32;;;;;;;227.40;127.00;;;;;;;15.68;74.28;100691.98;180631;1265;43791;-85
2023/04/10 16:37:36;;;;;;;94.70;54.10;;;;;;;15.61;74.80;100683.44;180509;1265;48757;-84
2023/04/10 16:41:39;;;;;;;38.70;25.00;;;;;;;15.51;74.75;100676.69;180431;1264;43803;-85
2023/04/10 16:45:42;;;;;;;39.10;23.80;;;;;;;15.47;75.01;100671.67;180464;1264;44124;-84
2023/04/10 16:49:46;;;;;;;26.00;21.20;;;;;;;15.42;75.09;100673.06;180507;1265;58833;-86
2023/04/10 16:53:49;;;;;;;29.90;22.00;;;;;;;15.27;74.65;100668.09;180552;1265;43849;-85
2023/04/10 16:57:52;;;;;;;18.50;15.10;;;;;;;15.14;74.94;100660.39;180492;1264;44268;-86
2023/04/10 17:01:55;;;;;;;29.60;20.30;;;;;;;15.01;75.05;100652.45;180561;1265;44188;-86
2023/04/10 17:05:58;;;;;;;47.40;28.60;;;;;;;14.84;75.83;100642.77;180515;1264;44125;-85
2023/04/10 17:10:02;;;;;;;53.40;29.40;;;;;;;14.60;77.73;100634.45;180318;1264;58416;-85
2023/04/10 17:14:06;;;;;;;45.80;27.60;;;;;;;14.21;80.69;100634.42;180548;1264;43867;-86
2023/04/10 17:18:10;;;;;;;43.90;29.70;;;;;;;13.88;82.61;100632.31;180506;1266;43788;-86
2023/04/10 17:22:16;;;;;;;36.90;27.60;;;;;;;13.59;84.40;100637.58;180515;1266;44466;-85
2023/04/10 17:26:21;;;;;;;42.80;31.20;;;;;;;13.36;86.20;100639.00;180308;1265;44613;-87
2023/04/10 17:30:25;;;;;;;43.80;28.90;;;;;;;13.15;87.17;100634.02;180301;1264;59799;-87
2023/04/10 17:34:28;;;;;;;37.00;28.00;;;;;;;12.91;88.97;100627.67;180359;1264;44148;-87
2023/04/10 17:38:31;;;;;;;40.30;27.50;;;;;;;12.78;89.54;100623.53;180350;1264;44151;-84
2023/04/10 17:42:34;;;;;;;32.40;25.30;;;;;;;12.70;89.36;100621.69;180404;1264;44482;-84
2023/04/10 17:46:37;;;;;;;31.70;23.90;;;;;;;12.66;89.43;100619.30;180460;1264;43929;-84
2023/04/10 17:50:43;;;;;;;33.50;25.90;;;;;;;12.62;89.12;100613.95;180531;1264;59665;-85
2023/04/10 17:54:48;;;;;;;34.30;26.50;;;;;;;12.56;88.89;100610.54;180406;1264;43832;-86
2023/04/10 17:58:53;;;;;;;39.80;26.90;;;;;;;12.46;88.86;100612.86;180730;1262;48124;-88
2023/04/10 18:07:15;;;;;;;30.90;25.00;;;;;;;12.24;89.90;100614.86;180557;1267;43916;-89
2023/04/10 18:11:18;;;;;;;39.50;27.60;;;;;;;11.93;91.89;100619.33;180165;1269;58555;-92
2023/04/10 18:15:22;;;;;;;49.90;26.80;;;;;;;11.71;93.42;100619.88;179987;1269;43942;-90
2023/04/10 18:19:28;;;;;;;53.60;32.50;;;;;;;11.55;94.57;100620.61;180451;1267;44230;-89
2023/04/10 18:23:32;;;;;;;41.20;29.60;;;;;;;11.42;95.80;100621.06;180448;1269;43905;-90
2023/04/10 18:27:56;;;;;;;47.10;31.80;;;;;;;11.32;97.11;100617.13;180344;1267;44371;-90
2023/04/10 18:32:17;;;;;;;53.70;35.20;;;;;;;11.14;98.16;100618.52;180485;1269;58569;-91
2023/04/10 18:40:39;;;;;;;48.10;29.50;;;;;;;10.79;99.84;100613.02;173673;1265;44197;-90
2023/04/10 18:48:59;;;;;;;59.10;35.80;;;;;;;10.36;100.00;100606.34;178736;1266;43896;-91
2023/04/10 18:53:03;;;;;;;42.10;30.90;;;;;;;10.23;100.00;100609.47;180557;1267;59378;-90
2023/04/10 18:57:07;;;;;;;43.90;31.20;;;;;;;10.06;100.00;100613.75;180536;1266;44027;-88
2023/04/10 19:01:12;;;;;;;38.20;30.00;;;;;;;9.90;100.00;100615.77;180614;1267;43824;-89
2023/04/10 19:05:15;;;;;;;45.40;30.20;;;;;;;9.89;100.00;100616.40;180524;1266;44001;-90
2023/04/10 19:09:40;;;;;;;38.60;27.80;;;;;;;9.90;100.00;100615.45;180570;1267;44151;-92
2023/04/10 19:14:05;;;;;;;41.60;30.20;;;;;;;9.84;100.00;100611.77;180519;1267;59545;-90
2023/04/10 19:18:09;;;;;;;40.90;30.80;;;;;;;9.81;100.00;100608.43;180511;1266;43901;-90
2023/04/10 19:22:17;;;;;;;40.10;27.40;;;;;;;9.73;100.00;100610.96;180661;1267;44699;-90
2023/04/10 19:26:21;;;;;;;45.20;34.20;;;;;;;9.67;100.00;100611.47;180465;1269;44185;-91
2023/04/10 19:30:25;;;;;;;43.50;27.80;;;;;;;9.67;100.00;100607.35;180405;1267;44199;-91
2023/04/10 19:34:29;;;;;;;44.10;32.60;;;;;;;9.62;100.00;100605.94;180771;1265;58399;-89
2023/04/10 19:38:32;;;;;;;43.60;32.70;;;;;;;9.48;100.00;100605.02;180729;1264;43932;-90
2023/04/10 19:42:36;;;;;;;43.30;31.30;;;;;;;9.44;100.00;100603.17;180756;1265;43831;-89
2023/04/10 19:46:40;;;;;;;42.10;29.40;;;;;;;9.39;100.00;100602.05;180619;1263;43845;-90
2023/04/10 19:50:43;;;;;;;46.50;33.60;;;;;;;9.32;100.00;100596.23;180539;1264;43898;-89
2023/04/10 19:54:46;;;;;;;45.80;30.30;;;;;;;9.12;100.00;100590.89;180485;1263;60164;-90
2023/04/10 19:58:50;;;;;;;44.60;28.10;;;;;;;9.13;100.00;100585.70;180554;1263;44316;-88
2023/04/10 20:02:53;;;;;;;48.70;31.90;;;;;;;9.13;100.00;100582.71;180431;1263;43956;-89
2023/04/10 20:06:57;;;;;;;48.30;29.90;;;;;;;9.11;100.00;100575.59;180244;1264;258519;-90
2023/04/10 20:11:00;;;;;;;39.90;30.90;;;;;;;9.03;100.00;100568.36;180523;1264;44185;-89
2023/04/10 20:15:04;;;;;;;49.30;32.20;;;;;;;8.92;100.00;100566.25;180600;1263;58348;-89
2023/04/10 20:19:07;;;;;;;46.40;33.80;;;;;;;8.91;100.00;100557.17;180477;1264;43939;-88
2023/04/10 20:23:11;;;;;;;108.70;77.60;;;;;;;8.89;100.00;100553.92;180549;1264;45022;-90
2023/04/10 20:27:15;;;;;;;49.10;37.30;;;;;;;8.82;100.00;100549.28;180649;1264;44233;-89
2023/04/10 20:31:18;;;;;;;46.80;33.40;;;;;;;8.76;100.00;100544.61;180417;1264;43815;-89
2023/04/10 20:35:22;;;;;;;41.10;29.00;;;;;;;8.66;100.00;100535.55;180578;1264;58699;-88
2023/04/10 20:39:25;;;;;;;46.40;32.00;;;;;;;8.63;100.00;100528.89;180560;1264;44367;-89
2023/04/10 20:43:28;;;;;;;45.00;33.10;;;;;;;8.61;100.00;100520.86;180636;1264;43873;-89
2023/04/10 20:47:31;;;;;;;45.70;35.50;;;;;;;8.61;100.00;100527.21;180488;1264;44015;-89
2023/04/10 20:51:36;;;;;;;50.90;34.70;;;;;;;8.58;100.00;100525.31;180645;1264;46693;-88
2023/04/10 20:55:39;;;;;;;43.70;32.60;;;;;;;8.59;100.00;100515.52;180566;1264;59835;-88
2023/04/10 20:59:44;;;;;;;48.30;35.90;;;;;;;8.47;100.00;100506.77;180619;1264;43862;-88
2023/04/10 21:03:47;;;;;;;53.70;35.30;;;;;;;8.48;100.00;100499.33;180524;1264;43877;-89
2023/04/10 21:07:50;;;;;;;54.70;34.60;;;;;;;8.52;100.00;100494.31;180556;1264;44368;-88
2023/04/10 21:11:54;;;;;;;50.60;32.70;;;;;;;8.57;100.00;100490.77;180595;1264;43739;-88
2023/04/10 21:16:00;;;;;;;47.70;33.00;;;;;;;8.55;100.00;100487.35;180619;1264;60516;-89
2023/04/10 21:24:50;;;;;;;46.60;31.50;;;;;;;8.52;100.00;100475.86;180781;1263;43875;-88
2023/04/10 21:33:32;;;;;;;41.30;28.80;;;;;;;8.53;100.00;100465.73;180239;1261;43971;-89
2023/04/10 21:37:40;;;;;;;45.50;29.50;;;;;;;8.41;100.00;100458.06;180833;1264;59241;-89
2023/04/10 21:41:45;;;;;;;40.00;31.40;;;;;;;8.34;100.00;100447.95;180862;1263;44154;-89
2023/04/10 21:45:49;;;;;;;47.70;30.90;;;;;;;8.27;100.00;100437.64;180901;1264;44262;-89
2023/04/10 21:49:53;;;;;;;50.90;28.70;;;;;;;8.18;100.00;100434.06;180855;1264;44136;-89
2023/04/10 21:53:57;;;;;;;62.70;38.80;;;;;;;8.28;100.00;100429.59;180868;1264;44060;-89
2023/04/10 21:58:00;;;;;;;73.20;40.90;;;;;;;8.42;100.00;100428.29;180788;1264;57050;-89
2023/04/10 22:02:04;;;;;;;72.70;45.50;;;;;;;8.49;100.00;100419.51;180853;1264;44003;-89
2023/04/10 22:06:08;;;;;;;78.30;49.20;;;;;;;8.60;100.00;100413.63;180811;1263;43898;-90
2023/04/10 22:10:16;;;;;;;87.40;49.30;;;;;;;8.65;100.00;100410.26;180826;1264;44158;-91
2023/04/10 22:14:20;;;;;;;76.60;44.10;;;;;;;8.70;100.00;100400.52;180884;1264;44255;-90
2023/04/10 22:18:27;;;;;;;78.70;46.00;;;;;;;8.76;100.00;100394.67;180873;1264;59416;-90
2023/04/10 22:22:30;;;;;;;76.10;46.50;;;;;;;8.74;100.00;100391.13;180809;1263;43797;-90
2023/04/10 22:26:34;;;;;;;73.40;43.20;;;;;;;8.70;100.00;100384.27;180726;1264;44114;-91
2023/04/10 22:30:42;;;;;;;57.70;36.10;;;;;;;8.68;100.00;100381.58;180819;1264;43788;-90
2023/04/10 22:44:06;;;;;;;49.60;31.60;;;;;;;8.44;100.00;100376.91;180929;1265;44176;-90
2023/04/10 22:57:01;;;;;;;44.00;31.90;;;;;;;8.37;100.00;100361.80;145984;1261;45087;-90
2023/04/10 23:01:07;;;;;;;51.00;31.90;;;;;;;8.36;100.00;100345.10;180842;1264;58364;-91